Terminal Aerodrome Forecast
Issued by NWS

Home | Current Version | Previous Version | Text Only | Print | Product List | Glossary On
Versions: 1 2 3 4 5 6 7 8 9 10 11 12 13 14 15
000
FTUS46 KSGX 232300
TAFONT
TAF
KONT 232332Z 2400/2506 25011KT P6SM SCT250
     FM240400 VRB04KT P6SM FEW250
     FM242100 24012KT P6SM SCT250
     FM250400 VRB05KT P6SM SCT250=

USA.gov is the U.S. government's official web portal to all federal, state and local government web resources and services.